• Join FlightAware (Why Join?)
  • Login
  • US Flag 
05:54PM EDT


 

Airport Tracker/Info


-or-


 

Live Flight TrackerFlight Track Log ✈ FLG4262 ✈ 21-Nov-2013 ✈ KDTW - KBGM

Flight Track Log - Related Links

Times and Time Zones

All times are in EST time to prevent confusion due to time zone crossing. See the FLG4262 flight status page for this flight to view local times or setup timezone preferences in your user account.

Time Position Orientation Groundspeed Altitude Reporting Facility
EST Latitude Longitude Course Direction KTS MPH feet Rate Location/Type
04:17PM 42.2008 -83.3550 172° South 162 186 1,600  Level Cleveland Center
04:18PM 42.1325 -83.3428 172° South 217 250 4,700 2,100 Climbing Cleveland Center
04:19PM 42.1072 -83.3017 130° Southeast 242 278 5,700 1,860 Climbing Cleveland Center
04:19PM 42.0881 -83.2689 128° Southeast 282 325 6,600 2,280 Climbing Cleveland Center
04:20PM 42.0714 -83.2047 109° East 299 344 8,100 2,040 Climbing Cleveland Center
04:21PM 42.1025 -83.1017 68° East 319 367 10,000 1,860 Climbing Cleveland Center
04:22PM 42.1503 -82.9869 61° Northeast 350 403 12,000 2,040 Climbing Cleveland Center
04:23PM 42.2106 -82.8422 61° Northeast 371 427 14,300 1,800 Climbing Cleveland Center
04:24PM 42.2617 -82.7161 61° Northeast 384 442 15,800 1,260 Climbing Cleveland Center
04:25PM 42.3156 -82.5861 61° Northeast 395 455 17,000 960 Climbing Cleveland Center
04:26PM 42.3664 -82.4450 64° Northeast 417 480 17,900 1,020 Climbing Cleveland Center
04:27PM 42.3611 -82.2853 93° East 427 491 19,200 1,200 Climbing Cleveland Center
04:28PM 42.3539 -82.0978 93° East 429 494 20,400 1,080 Climbing Cleveland Center
04:29PM 42.3464 -81.9328 93° East 434 499 21,500 900 Climbing Cleveland Center
04:30PM 42.3389 -81.7631 93° East 443 510 22,300 720 Climbing Cleveland Center
04:31PM 42.3311 -81.5908 93° East 451 519 23,100 720 Climbing Cleveland Center
04:32PM 42.3228 -81.4172 94° East 456 525 23,900 780 Climbing Cleveland Center
04:33PM 42.3144 -81.2428 94° East 461 531 24,800 840 Climbing Cleveland Center
04:34PM 42.3042 -81.0383 94° East 462 532 25,700 780 Climbing Cleveland Center
04:35PM 42.2947 -80.8647 94° East 461 531 26,500 720 Climbing Cleveland Center
04:36PM 42.2861 -80.6908 94° East 460 529 27,300 720 Climbing Cleveland Center
04:37PM 42.2769 -80.5194 94° East 455 524 28,100 600 Climbing Cleveland Center
04:38PM 42.2711 -80.3425 92° East 464 534 28,600 420 Climbing Cleveland Center
04:39PM 42.2733 -80.1633 89° East 471 542 29,000 180 Climbing Cleveland Center
04:40PM 42.2731 -79.9589 90° East 475 547 29,000  Level Cleveland Center
04:41PM 42.2728 -79.7697 90° East 487 560 29,000  Level Cleveland Center
04:42PM 42.2728 -79.5847 90° East 496 571 29,000  Level Cleveland Center
04:44PM 42.2711 -79.3967 91° East 501 577 29,000  Level Cleveland Center
04:45PM 42.2708 -79.2069 90° East 506 582 29,000 -300 Level Cleveland Center
04:46PM 42.2692 -79.0153 91° East 511 588 28,500 -540 Descending Cleveland Center
04:47PM 42.2689 -78.8133 90° East 513 590 28,000 -300 Descending Cleveland Center
04:48PM 42.2667 -78.6239 91° East 509 586 28,000 -720 Level Cleveland Center
04:49PM 42.2642 -78.4011 91° East 500 575 26,600 -1,380 Descending Cleveland Center
04:50PM 42.2625 -78.2147 91° East 500 575 25,200 -1,380 Descending Cleveland Center
04:51PM 42.2592 -78.0297 91° East 499 574 23,800 -1,620 Descending Cleveland Center
04:52PM 42.2561 -77.8453 91° East 498 573 21,900 -1,860 Descending Cleveland Center
04:53PM 42.2528 -77.6722 91° East 476 548 20,000 -1,920 Descending Cleveland Center
04:54PM 42.2478 -77.4678 92° East 462 532 17,900 -1,740 Descending Cleveland Center
04:55PM 42.2453 -77.2961 91° East 463 533 16,500 -1,560 Descending Cleveland Center
04:56PM 42.2417 -77.1300 92° East 454 522 14,700 -1,800 Descending Cleveland Center
04:57PM 42.2372 -76.9778 92° East 416 479 12,900 -1,800 Descending Cleveland Center
04:58PM 42.2344 -76.8300 91° East 401 461 11,100 -1,500 Descending Cleveland Center
04:59PM 42.2294 -76.6750 92° East 348 400 9,900 -1,020 Descending Cleveland Center
05:00PM 42.1997 -76.5764 112° Southeast 296 341 9,000 -480 Descending Cleveland Center
05:01PM 42.1681 -76.4756 113° Southeast 292 336 9,000 -420 Level Cleveland Center
05:02PM 42.1553 -76.3633 99° East 300 345 8,200 -900 Descending Cleveland Center
05:03PM 42.1558 -76.2525 90° East 298 343 7,200 -1,260 Descending Cleveland Center
05:04PM 42.1583 -76.1308 88° East 291 335 5,600 -1,500 Descending New York Center
05:05PM 42.1544 -76.0353 93° East 280 322 4,100 -900 Descending New York Center
05:06PM 42.1358 -75.9808 115° Southeast 219 252 3,900 -240 Descending New York Center